Adelandia, Brazil
Current Conditions -  °F | °C
As of 6:00 PM on Saturday 25 Oct 2014 (Local Time) from SBGO Reporting Station
Scattered Clouds Scattered Clouds  
Wind Chill: 73°   Ceiling: Unl
Heat Index: 73°   Visibility: 6mi
Dew Point: 64°   Wind: 7mph
Humidity: 73%   Direction: 110°ESE
Pressure: 29.94"   Gusts: NA
Location:  16.42°S, 50.17°W
Report Text: SBGO 252000Z 11006KT 9999 FEW010 SCT100 23/18 Q1014
Loading
Personal Weather Stations






























Interactive Weather Map
Tropical Storm Tracking
New forecast layout! Learn more

10-Day Weather Forecast

Advertisements
Track Severe Weather on mobile